Time;durP1;ratioP1;P1;durP2;ratioP2;P2;SDS_P1;SDS_P2;PMS_P1;PMS_P2;Temp;Humidity;BMP_temperature;BMP_pressure;BME280_temperature;BME280_humidity;BME280_pressure;Samples;Min_cycle;Max_cycle;Signal;HPM_P1;HPM_P2
2022/07/18 00:01:11;;;;;;;2.83;2.60;;;20.60;52.00;;;;;;5075261;28;21018;-71
2022/07/18 00:03:38;;;;;;;4.47;2.67;;;20.60;52.00;;;;;;5075290;28;20476;-71
2022/07/18 00:06:05;;;;;;;3.30;3.00;;;;;;;;;;5075570;28;20548;-71
2022/07/18 00:08:32;;;;;;;3.33;2.93;;;20.80;52.20;;;;;;5075410;28;20487;-71
2022/07/18 00:11:00;;;;;;;3.17;2.47;;;20.90;52.30;;;;;;5075390;28;20526;-71
2022/07/18 00:13:27;;;;;;;3.40;2.60;;;21.00;52.70;;;;;;5075455;28;20480;-71
2022/07/18 00:15:55;;;;;;;4.30;3.00;;;21.00;52.50;;;;;;5075048;28;20474;-72
2022/07/18 00:18:22;;;;;;;3.53;2.20;;;20.90;51.90;;;;;;5074917;28;20523;-71
2022/07/18 00:20:50;;;;;;;4.37;2.90;;;20.70;52.70;;;;;;5075213;28;20559;-71
2022/07/18 00:23:17;;;;;;;3.17;2.67;;;20.70;52.40;;;;;;5075008;28;20926;-71
2022/07/18 00:25:44;;;;;;;4.57;2.40;;;20.70;52.40;;;;;;5075178;28;20495;-71
2022/07/18 00:28:11;;;;;;;3.17;2.83;;;20.80;52.70;;;;;;5075064;28;20559;-71
2022/07/18 00:30:39;;;;;;;3.27;2.97;;;20.90;52.80;;;;;;5075102;28;20551;-71
2022/07/18 00:33:07;;;;;;;4.50;2.83;;;20.80;52.10;;;;;;5074746;28;20532;-71
2022/07/18 00:35:35;;;;;;;3.17;2.53;;;20.80;52.60;;;;;;5074748;28;20491;-72
2022/07/18 00:38:03;;;;;;;4.03;2.43;;;20.70;52.30;;;;;;5075059;28;20528;-71
2022/07/18 00:40:30;;;;;;;2.50;2.30;;;20.70;52.50;;;;;;5074835;28;20550;-72
2022/07/18 00:42:58;;;;;;;3.40;2.80;;;20.50;52.70;;;;;;5074546;28;20532;-72
2022/07/18 00:45:25;;;;;;;2.67;2.47;;;20.50;52.70;;;;;;5074948;28;20454;-72
2022/07/18 00:47:52;;;;;;;3.50;3.10;;;20.50;52.40;;;;;;5074448;28;20500;-72
2022/07/18 00:50:23;;;;;;;4.20;2.80;;;20.20;52.60;;;;;;5074697;28;20468;-72
2022/07/18 00:52:50;;;;;;;3.73;2.80;;;20.20;53.30;;;;;;5074471;28;20528;-72
2022/07/18 00:55:18;;;;;;;3.03;2.47;;;20.10;53.00;;;;;;5073734;28;20535;-72
2022/07/18 00:57:45;;;;;;;4.40;2.50;;;20.00;53.20;;;;;;5074392;28;20543;-72
2022/07/18 01:02:59;;;;;;;3.03;2.60;;;20.10;53.40;;;;;;5074301;28;20454;-72
2022/07/18 01:05:28;;;;;;;2.67;2.47;;;20.20;54.00;;;;;;5074200;28;20790;-72
2022/07/18 01:07:56;;;;;;;7.70;3.00;;;20.20;53.60;;;;;;5074343;28;20476;-72
2022/07/18 01:10:23;;;;;;;3.30;3.00;;;20.20;53.50;;;;;;5073892;28;20859;-72
2022/07/18 01:12:50;;;;;;;3.47;2.20;;;20.10;53.40;;;;;;5074458;28;20476;-72
2022/07/18 01:15:18;;;;;;;3.63;3.13;;;20.10;53.60;;;;;;5074040;28;20542;-72
2022/07/18 01:17:45;;;;;;;2.80;2.60;;;19.90;53.50;;;;;;5073719;28;20548;-72
2022/07/18 01:20:13;;;;;;;3.20;2.20;;;19.90;53.80;;;;;;5074133;28;20522;-72
2022/07/18 01:22:42;;;;;;;5.07;2.57;;;19.80;53.50;;;;;;5074128;28;20472;-72
2022/07/18 01:25:10;;;;;;;3.63;2.60;;;19.70;53.60;;;;;;5073969;28;20782;-71
2022/07/18 01:27:37;;;;;;;3.03;2.73;;;19.60;53.70;;;;;;5073669;28;21018;-72
2022/07/18 01:30:06;;;;;;;3.90;3.27;;;19.60;53.80;;;;;;5073979;28;20468;-72
2022/07/18 01:32:33;;;;;;;2.63;2.30;;;19.60;53.70;;;;;;5073904;28;20474;-72
2022/07/18 01:35:00;;;;;;;3.10;2.43;;;19.50;54.00;;;;;;5074108;28;20449;-72
2022/07/18 01:37:27;;;;;;;3.50;3.03;;;19.70;53.60;;;;;;5073585;28;20436;-72
2022/07/18 01:39:56;;;;;;;4.17;2.80;;;19.70;53.50;;;;;;5073416;28;20823;-72
2022/07/18 01:42:24;;;;;;;4.13;2.97;;;19.60;53.80;;;;;;5073482;28;20535;-72
2022/07/18 01:44:51;;;;;;;5.47;2.67;;;19.50;53.80;;;;;;5073524;28;20510;-72
2022/07/18 01:47:18;;;;;;;4.53;3.13;;;19.50;54.20;;;;;;5073845;28;20452;-72
2022/07/18 01:49:46;;;;;;;3.90;2.90;;;19.60;54.30;;;;;;5073628;28;20484;-72
2022/07/18 01:52:13;;;;;;;3.57;3.27;;;19.70;54.90;;;;;;5073363;28;20458;-72
2022/07/18 01:54:40;;;;;;;4.70;4.30;;;19.70;54.40;;;;;;5073662;28;20455;-72
2022/07/18 01:57:09;;;;;;;4.10;2.80;;;19.60;54.50;;;;;;5073582;28;20570;-72
2022/07/18 01:59:36;;;;;;;3.53;2.70;;;19.50;54.70;;;;;;5073751;28;20444;-72
2022/07/18 02:02:04;;;;;;;5.30;2.77;;;19.60;54.80;;;;;;5073532;28;20452;-72
2022/07/18 02:07:16;;;;;;;4.00;3.00;;;19.30;55.00;;;;;;5072940;28;20498;-72
2022/07/18 02:09:43;;;;;;;3.70;2.90;;;;;;;;;;5073362;28;20853;-72
2022/07/18 02:12:12;;;;;;;2.83;2.63;;;19.10;55.10;;;;;;5073147;28;20450;-72
2022/07/18 02:14:39;;;;;;;3.63;3.10;;;19.10;55.50;;;;;;5073405;28;20873;-72
2022/07/18 02:17:07;;;;;;;3.30;3.00;;;19.20;56.10;;;;;;5073183;28;20535;-72
2022/07/18 02:19:34;;;;;;;3.33;2.80;;;19.30;55.90;;;;;;5073372;28;20480;-72
2022/07/18 02:22:01;;;;;;;3.30;3.00;;;19.20;56.10;;;;;;5073254;28;20536;-71
2022/07/18 02:24:28;;;;;;;3.23;2.73;;;19.20;56.10;;;;;;5073492;28;20527;-72
2022/07/18 02:26:56;;;;;;;3.70;3.20;;;19.10;56.20;;;;;;5073264;28;20532;-72
2022/07/18 02:29:24;;;;;;;3.17;2.80;;;19.10;56.70;;;;;;5073057;28;20496;-72
2022/07/18 02:31:51;;;;;;;4.13;3.43;;;19.20;57.00;;;;;;5073506;28;20455;-71
2022/07/18 02:34:19;;;;;;;3.00;2.70;;;19.20;56.60;;;;;;5073057;28;20482;-72
2022/07/18 02:36:47;;;;;;;6.23;3.13;;;19.00;57.00;;;;;;5073305;28;20458;-72
2022/07/18 02:39:15;;;;;;;4.20;2.93;;;19.10;57.40;;;;;;5073127;28;20481;-71
2022/07/18 02:41:42;;;;;;;4.23;3.00;;;19.10;57.20;;;;;;5072818;28;20480;-71
2022/07/18 02:44:09;;;;;;;3.40;3.10;;;19.00;57.40;;;;;;5073209;28;20490;-71
2022/07/18 02:46:38;;;;;;;3.73;2.83;;;18.90;57.50;;;;;;5072797;28;20941;-72
2022/07/18 02:49:05;;;;;;;4.87;3.23;;;18.80;57.80;;;;;;5073261;28;20484;-72
2022/07/18 02:51:32;;;;;;;3.10;2.80;;;18.80;58.30;;;;;;5073274;28;20568;-72
2022/07/18 02:53:59;;;;;;;3.90;2.97;;;18.90;58.10;;;;;;5072797;28;20429;-72
2022/07/18 02:56:27;;;;;;;3.20;2.90;;;19.00;58.10;;;;;;5072918;28;21003;-72
2022/07/18 02:58:54;;;;;;;3.87;3.20;;;18.80;58.10;;;;;;5072676;28;20535;-72
2022/07/18 03:01:21;;;;;;;4.17;2.90;;;18.70;58.30;;;;;;5072997;28;20560;-72
2022/07/18 03:03:49;;;;;;;4.30;3.20;;;18.60;58.50;;;;;;5073110;28;20452;-71
2022/07/18 03:06:17;;;;;;;4.13;2.90;;;18.60;58.70;;;;;;5073137;28;20513;-71
2022/07/18 03:08:44;;;;;;;3.20;2.97;;;18.60;59.10;;;;;;5072943;28;20840;-71
2022/07/18 03:11:11;;;;;;;5.27;3.77;;;18.70;58.60;;;;;;5073090;28;20478;-71
2022/07/18 03:13:38;;;;;;;5.20;3.37;;;18.80;59.60;;;;;;5072541;28;20543;-71
2022/07/18 03:16:06;;;;;;;4.70;2.90;;;18.90;59.80;;;;;;5072958;28;20539;-71
2022/07/18 03:18:33;;;;;;;4.13;3.37;;;18.90;59.80;;;;;;5073545;28;20531;-72
2022/07/18 03:21:02;;;;;;;5.07;3.60;;;19.00;60.20;;;;;;5076165;28;21049;-70
2022/07/18 03:23:29;;;;;;;9.13;3.70;;;19.00;59.80;;;;;;5076297;28;20539;-71
2022/07/18 03:25:56;;;;;;;3.40;3.10;;;19.00;59.50;;;;;;5076404;28;20619;-70
2022/07/18 03:28:27;;;;;;;3.33;3.03;;;19.00;59.80;;;;;;5076377;28;20448;-70
2022/07/18 03:30:58;;;;;;;3.40;2.90;;;19.00;59.30;;;;;;5076349;28;20482;-70
2022/07/18 03:33:25;;;;;;;3.60;3.30;;;18.90;59.50;;;;;;5076088;28;20433;-71
2022/07/18 03:35:53;;;;;;;3.50;3.17;;;18.70;60.10;;;;;;5076289;28;20547;-71
2022/07/18 03:38:24;;;;;;;6.43;3.33;;;18.80;60.70;;;;;;5076166;28;20874;-71
2022/07/18 03:40:54;;;;;;;3.77;2.70;;;18.90;59.40;;;;;;5075346;28;20469;-71
2022/07/18 03:43:22;;;;;;;3.30;3.00;;;18.70;59.60;;;;;;5075840;28;20429;-71
2022/07/18 03:45:49;;;;;;;7.70;2.93;;;18.70;60.80;;;;;;5075885;28;20448;-71
2022/07/18 03:48:16;;;;;;;3.47;3.00;;;18.60;60.50;;;;;;5075356;28;20535;-71
2022/07/18 03:50:43;;;;;;;5.83;3.33;;;18.70;59.50;;;;;;5075561;28;21014;-71
2022/07/18 03:53:11;;;;;;;4.27;3.20;;;18.80;60.30;;;;;;5075575;28;20484;-72
2022/07/18 03:55:39;;;;;;;3.50;3.20;;;18.80;60.90;;;;;;5075596;28;20543;-72
2022/07/18 03:58:07;;;;;;;3.43;3.13;;;18.80;61.40;;;;;;5075601;28;20543;-72
2022/07/18 04:00:34;;;;;;;4.27;3.53;;;18.90;62.00;;;;;;5075358;28;20548;-72
2022/07/18 04:03:01;;;;;;;4.47;4.07;;;18.90;62.00;;;;;;5075316;28;20445;-71
2022/07/18 04:05:28;;;;;;;6.40;3.23;;;18.90;62.60;;;;;;5075814;28;20865;-71
2022/07/18 04:07:56;;;;;;;4.03;3.63;;;18.90;63.40;;;;;;5075647;28;20539;-70
2022/07/18 04:10:23;;;;;;;5.10;3.67;;;18.80;63.50;;;;;;5075075;28;20490;-71
2022/07/18 04:12:53;;;;;;;6.50;5.70;;;18.90;64.90;;;;;;5075591;28;20570;-71
2022/07/18 04:15:22;;;;;;;6.50;3.77;;;18.90;64.60;;;;;;5075512;28;20484;-71
2022/07/18 04:17:49;;;;;;;4.63;3.60;;;18.90;64.90;;;;;;5075091;28;20455;-71
2022/07/18 04:20:19;;;;;;;4.10;3.23;;;19.00;65.60;;;;;;5074989;28;20930;-70
2022/07/18 04:22:48;;;;;;;4.50;3.83;;;19.00;65.90;;;;;;5075457;28;20619;-71
2022/07/18 04:25:15;;;;;;;4.17;3.53;;;18.90;66.40;;;;;;5075180;28;20457;-70
2022/07/18 04:27:43;;;;;;;8.20;4.00;;;18.90;66.20;;;;;;5075268;28;20546;-71
2022/07/18 04:30:12;;;;;;;4.73;3.67;;;18.90;67.30;;;;;;5073862;28;20987;-70
2022/07/18 04:32:39;;;;;;;5.23;3.87;;;18.80;67.40;;;;;;5075035;28;20453;-71
2022/07/18 04:35:08;;;;;;;3.60;2.70;;;18.80;67.50;;;;;;5074962;28;20452;-71
2022/07/18 04:37:35;;;;;;;7.40;3.63;;;18.50;68.00;;;;;;5074615;28;20464;-71
2022/07/18 04:40:02;;;;;;;4.17;3.60;;;18.20;68.60;;;;;;5075046;28;20460;-71
2022/07/18 04:42:31;;;;;;;3.53;3.20;;;18.10;69.00;;;;;;5074325;28;21021;-71
2022/07/18 04:44:59;;;;;;;3.90;3.60;;;18.10;69.40;;;;;;5074609;28;20429;-71
2022/07/18 04:47:28;;;;;;;3.57;3.27;;;18.40;70.80;;;;;;5074773;28;20448;-71
2022/07/18 04:49:55;;;;;;;5.00;3.53;;;18.50;70.90;;;;;;5074614;28;20516;-71
2022/07/18 04:52:23;;;;;;;6.77;3.47;;;18.60;71.60;;;;;;5074636;28;20487;-72
2022/07/18 04:54:50;;;;;;;3.90;3.50;;;18.70;70.90;;;;;;5074830;28;20528;-72
2022/07/18 04:57:18;;;;;;;6.00;3.50;;;18.70;70.50;;;;;;5074351;28;20456;-72
2022/07/18 04:59:45;;;;;;;4.30;3.63;;;18.80;71.20;;;;;;5074317;28;20507;-72
2022/07/18 05:02:13;;;;;;;4.20;3.43;;;18.80;70.50;;;;;;5074495;28;20819;-71
2022/07/18 05:04:42;;;;;;;4.97;4.03;;;18.80;71.10;;;;;;5074463;28;20448;-71
2022/07/18 05:07:09;;;;;;;7.23;3.57;;;18.90;71.10;;;;;;5074643;28;20456;-71
2022/07/18 05:09:37;;;;;;;4.30;3.90;;;19.00;70.20;;;;;;5074169;28;20995;-72
2022/07/18 05:12:04;;;;;;;3.97;3.30;;;19.00;66.00;;;;;;5074308;28;20504;-71
2022/07/18 05:14:31;;;;;;;3.77;3.13;;;19.10;67.10;;;;;;5073706;28;21024;-71
2022/07/18 05:16:59;;;;;;;4.23;3.70;;;19.10;66.00;;;;;;5074085;28;20565;-70
2022/07/18 05:19:26;;;;;;;4.53;3.57;;;19.10;65.40;;;;;;5074106;28;20452;-70
2022/07/18 05:21:55;;;;;;;4.43;3.47;;;19.20;66.10;;;;;;5073903;28;20514;-70
2022/07/18 05:24:22;;;;;;;4.57;3.77;;;19.30;65.90;;;;;;5073864;28;20858;-70
2022/07/18 05:26:49;;;;;;;4.87;3.13;;;19.40;65.30;;;;;;5074045;28;20539;-72
2022/07/18 05:29:17;;;;;;;3.33;3.03;;;19.40;65.80;;;;;;5073366;28;20476;-72
2022/07/18 05:31:44;;;;;;;4.27;3.30;;;19.50;62.90;;;;;;5073483;28;20480;-71
2022/07/18 05:34:12;;;;;;;6.40;4.03;;;19.50;62.40;;;;;;5073731;28;20510;-71
2022/07/18 05:36:39;;;;;;;4.00;3.60;;;19.60;62.60;;;;;;5073889;28;20948;-72
2022/07/18 05:39:09;;;;;;;5.03;3.43;;;19.60;61.50;;;;;;5073776;28;20931;-72
2022/07/18 05:41:36;;;;;;;5.60;3.13;;;19.70;63.40;;;;;;5073230;28;20982;-72
2022/07/18 05:44:04;;;;;;;5.10;3.33;;;19.70;62.50;;;;;;5073396;28;20440;-72
2022/07/18 05:46:31;;;;;;;4.60;3.10;;;19.80;63.20;;;;;;5073320;28;20489;-72
2022/07/18 05:48:58;;;;;;;4.53;3.50;;;19.80;61.10;;;;;;5073703;28;20444;-72
2022/07/18 05:51:25;;;;;;;9.40;4.03;;;19.90;62.70;;;;;;5073313;28;20460;-73
2022/07/18 05:53:53;;;;;;;6.53;3.50;;;20.00;60.80;;;;;;5073348;28;20487;-73
2022/07/18 05:56:21;;;;;;;5.17;3.40;;;20.00;60.80;;;;;;5073113;28;20535;-73
2022/07/18 05:58:49;;;;;;;5.40;3.13;;;20.10;62.30;;;;;;5073489;28;20535;-72
2022/07/18 06:01:16;;;;;;;4.70;3.37;;;20.20;62.80;;;;;;5073095;28;20460;-72
2022/07/18 06:03:44;;;;;;;4.27;3.87;;;20.20;64.90;;;;;;5073289;28;20494;-72
2022/07/18 06:06:11;;;;;;;4.40;3.60;;;20.30;61.90;;;;;;5073399;28;20451;-72
2022/07/18 06:08:38;;;;;;;5.57;3.77;;;20.20;62.50;;;;;;5073039;28;20939;-72
2022/07/18 06:11:07;;;;;;;6.93;3.77;;;20.20;63.40;;;;;;5072844;28;20488;-72
2022/07/18 06:13:36;;;;;;;8.30;3.50;;;20.30;62.90;;;;;;5072960;28;20849;-73
2022/07/18 06:16:04;;;;;;;5.70;4.07;;;20.40;63.80;;;;;;5072922;28;20451;-72
2022/07/18 06:18:31;;;;;;;11.53;4.97;;;20.40;62.20;;;;;;5072938;28;20467;-71
2022/07/18 06:20:59;;;;;;;7.43;3.93;;;20.60;62.40;;;;;;5072841;28;20464;-72
2022/07/18 06:23:26;;;;;;;7.97;4.27;;;20.60;64.00;;;;;;5073050;28;20540;-71
2022/07/18 06:25:53;;;;;;;4.87;4.27;;;20.70;63.30;;;;;;5072758;28;20476;-72
2022/07/18 06:28:20;;;;;;;4.47;4.00;;;20.70;64.40;;;;;;5073142;28;20539;-72
2022/07/18 06:30:52;;;;;;;4.60;3.67;;;20.80;64.90;;;;;;5073009;28;20550;-72
2022/07/18 06:33:19;;;;;;;5.60;3.93;;;20.90;65.40;;;;;;5072714;28;20432;-72
2022/07/18 06:35:47;;;;;;;4.63;3.93;;;20.90;64.20;;;;;;5072939;28;20460;-72
2022/07/18 06:38:14;;;;;;;8.33;4.10;;;21.00;63.70;;;;;;5073145;28;20448;-73
2022/07/18 06:40:42;;;;;;;5.30;4.00;;;21.10;63.40;;;;;;5072212;28;20474;-73
2022/07/18 06:43:09;;;;;;;6.27;4.00;;;21.20;65.10;;;;;;5072627;28;20453;-72
2022/07/18 06:45:37;;;;;;;5.97;3.30;;;21.20;62.80;;;;;;5072772;28;20876;-72
2022/07/18 06:48:06;;;;;;;8.87;3.90;;;21.30;63.40;;;;;;5072265;28;20872;-71
2022/07/18 06:50:34;;;;;;;4.10;3.57;;;21.40;64.20;;;;;;5072327;28;20503;-72
2022/07/18 06:53:02;;;;;;;8.50;4.53;;;21.50;64.20;;;;;;5072938;28;20476;-72
2022/07/18 06:55:29;;;;;;;6.33;4.30;;;21.60;63.50;;;;;;5076565;28;20516;-72
2022/07/18 06:57:56;;;;;;;8.00;5.33;;;21.60;62.70;;;;;;5076022;28;20972;-72
2022/07/18 07:00:23;;;;;;;5.27;3.57;;;21.70;61.10;;;;;;5076111;28;20475;-73
2022/07/18 07:02:51;;;;;;;7.63;4.17;;;21.80;63.50;;;;;;5076369;28;20548;-72
2022/07/18 07:05:21;;;;;;;6.50;4.70;;;21.90;60.70;;;;;;5076071;28;20567;-73
2022/07/18 07:07:49;;;;;;;7.93;4.13;;;22.00;60.90;;;;;;5076015;28;20513;-73
2022/07/18 07:10:18;;;;;;;10.83;4.70;;;22.20;60.70;;;;;;5076145;28;20575;-73
2022/07/18 07:12:46;;;;;;;5.37;4.50;;;22.20;60.40;;;;;;5075852;28;20479;-73
2022/07/18 07:15:14;;;;;;;8.50;4.50;;;22.20;61.80;;;;;;5076360;28;20506;-73
2022/07/18 07:17:41;;;;;;;4.23;3.80;;;22.30;60.70;;;;;;5076374;28;20448;-72
2022/07/18 07:20:10;;;;;;;10.17;4.73;;;22.40;59.90;;;;;;5075681;28;21038;-72
2022/07/18 07:22:47;;;;;;;6.07;5.00;;;22.60;60.50;;;;;;5075885;28;20498;-72
2022/07/18 07:25:15;;;;;;;4.60;4.20;;;23.20;59.90;;;;;;5075627;28;20434;-72
2022/07/18 07:27:42;;;;;;;7.87;3.93;;;24.10;58.80;;;;;;5076043;28;20479;-72
2022/07/18 07:30:11;;;;;;;8.17;4.13;;;24.70;57.90;;;;;;5075670;28;20576;-73
2022/07/18 07:32:41;;;;;;;5.87;4.40;;;25.40;57.40;;;;;;5075439;28;20444;-72
2022/07/18 07:35:11;;;;;;;8.00;3.53;;;26.20;56.10;;;;;;5075659;28;20958;-73
2022/07/18 07:37:39;;;;;;;5.10;3.67;;;26.60;54.00;;;;;;5075985;28;20436;-73
2022/07/18 07:40:09;;;;;;;4.43;3.23;;;27.30;53.50;;;;;;5075376;28;20958;-73
2022/07/18 07:42:37;;;;;;;6.07;3.97;;;27.80;53.70;;;;;;5075575;28;20507;-73
2022/07/18 07:45:05;;;;;;;7.90;3.77;;;27.80;52.60;;;;;;5075858;28;20536;-72
2022/07/18 07:47:33;;;;;;;7.43;3.43;;;28.30;52.80;;;;;;5075655;28;20532;-73
2022/07/18 07:50:00;;;;;;;4.83;3.63;;;;;;;;;;5075330;28;21065;-72
2022/07/18 07:52:28;;;;;;;4.03;3.03;;;28.80;51.10;;;;;;5075306;28;20448;-72
2022/07/18 07:54:55;;;;;;;5.40;3.53;;;28.90;51.50;;;;;;5075420;28;20466;-73
2022/07/18 07:57:25;;;;;;;6.27;3.50;;;;;;;;;;5075311;28;20941;-73
2022/07/18 07:59:52;;;;;;;5.47;3.57;;;29.70;49.40;;;;;;5075703;28;20475;-72
2022/07/18 08:02:20;;;;;;;5.60;3.53;;;29.90;49.60;;;;;;5075405;28;20446;-72
2022/07/18 08:04:47;;;;;;;4.10;3.00;;;30.40;49.50;;;;;;5073907;28;20543;-72
2022/07/18 08:07:14;;;;;;;5.10;3.30;;;30.50;49.40;;;;;;5075538;28;20543;-72
2022/07/18 08:09:41;;;;;;;6.60;3.27;;;30.70;49.00;;;;;;5075225;28;20547;-72
2022/07/18 08:12:09;;;;;;;3.50;3.20;;;30.60;49.30;;;;;;5075371;28;20451;-73
2022/07/18 08:14:40;;;;;;;6.67;3.77;;;31.00;47.90;;;;;;5075266;28;20495;-72
2022/07/18 08:17:07;;;;;;;6.70;3.40;;;31.30;49.00;;;;;;5074781;28;20443;-71
2022/07/18 08:19:34;;;;;;;4.30;3.37;;;31.40;48.30;;;;;;5074723;28;20448;-71
2022/07/18 08:22:02;;;;;;;6.37;3.20;;;;;;;;;;5074907;28;20927;-71
2022/07/18 08:24:29;;;;;;;4.10;3.10;;;31.80;47.20;;;;;;5074581;28;20960;-71
2022/07/18 08:26:56;;;;;;;8.03;3.37;;;32.10;46.70;;;;;;5074728;28;20515;-71
2022/07/18 08:29:23;;;;;;;3.33;2.87;;;32.40;47.30;;;;;;5074950;28;20452;-72
2022/07/18 08:31:52;;;;;;;8.43;4.00;;;31.80;45.60;;;;;;5074935;28;20486;-71
2022/07/18 08:34:19;;;;;;;5.17;3.20;;;31.80;47.50;;;;;;5074466;28;20432;-70
2022/07/18 08:36:46;;;;;;;6.47;3.73;;;32.80;47.70;;;;;;5074915;28;20440;-71
2022/07/18 08:39:13;;;;;;;6.20;3.10;;;32.90;46.20;;;;;;5074554;28;21009;-72
2022/07/18 08:41:46;;;;;;;4.63;3.47;;;33.00;46.70;;;;;;5074259;28;20558;-72
2022/07/18 08:44:14;;;;;;;4.50;3.30;;;33.30;46.60;;;;;;5074469;28;20454;-71
2022/07/18 08:46:43;;;;;;;6.17;3.77;;;33.80;46.00;;;;;;5074737;28;20625;-71
2022/07/18 08:49:12;;;;;;;5.43;3.60;;;33.90;46.10;;;;;;5074146;28;20535;-71
2022/07/18 08:51:40;;;;;;;5.67;3.47;;;33.80;46.40;;;;;;5074419;28;20576;-72
2022/07/18 08:54:08;;;;;;;5.37;4.57;;;33.70;46.00;;;;;;5074138;28;20456;-71
2022/07/18 08:56:35;;;;;;;4.33;3.40;;;34.20;45.10;;;;;;5074087;28;20444;-71
2022/07/18 08:59:03;;;;;;;5.60;3.57;;;33.90;45.50;;;;;;5074114;28;20534;-71
2022/07/18 09:01:30;;;;;;;4.77;3.60;;;34.00;45.00;;;;;;5073847;28;20463;-71
2022/07/18 09:04:16;;;;;;;5.30;3.10;;;33.80;45.10;;;;;;5073430;28;20978;-71
2022/07/18 09:06:47;;;;;;;5.50;3.57;;;34.30;45.10;;;;;;5073276;28;20451;-71
2022/07/18 09:09:16;;;;;;;4.53;3.07;;;34.70;45.00;;;;;;5073145;28;20534;-72
2022/07/18 09:11:52;;;;;;;4.93;3.40;;;34.90;44.20;;;;;;5073886;28;20479;-72
2022/07/18 09:14:33;;;;;;;3.27;2.97;;;34.60;43.60;;;;;;5073656;28;20845;-70
2022/07/18 09:17:06;;;;;;;4.60;3.10;;;34.40;44.40;;;;;;5073241;28;20578;-70
2022/07/18 09:19:34;;;;;;;5.27;3.73;;;34.40;44.00;;;;;;5073390;28;20485;-71
2022/07/18 09:22:21;;;;;;;4.80;3.90;;;34.70;43.60;;;;;;5073589;28;20444;-70
2022/07/18 09:24:54;;;;;;;6.03;3.40;;;34.70;43.50;;;;;;5073560;28;20497;-70
2022/07/18 09:27:26;;;;;;;4.23;2.80;;;35.10;43.60;;;;;;5073860;28;20499;-71
2022/07/18 09:30:28;;;;;;;3.27;2.57;;;35.40;43.00;;;;;;5073386;28;20957;-70
2022/07/18 09:33:06;;;;;;;3.70;3.17;;;35.30;41.40;;;;;;5073565;28;20423;-71
2022/07/18 09:35:35;;;;;;;3.23;2.93;;;35.70;41.40;;;;;;5073549;28;20913;-72
2022/07/18 09:38:05;;;;;;;7.30;3.53;;;35.50;41.30;;;;;;5073424;28;20891;-71
2022/07/18 09:40:34;;;;;;;5.70;2.50;;;35.70;40.70;;;;;;5073589;28;20460;-72
2022/07/18 09:43:03;;;;;;;3.00;2.73;;;35.80;41.70;;;;;;5073598;28;20440;-71
2022/07/18 09:45:33;;;;;;;4.03;2.93;;;36.30;40.80;;;;;;5073390;28;20454;-72
2022/07/18 09:48:01;;;;;;;3.73;2.53;;;36.10;39.50;;;;;;5073256;28;20517;-71
2022/07/18 09:50:31;;;;;;;3.60;2.80;;;36.20;39.80;;;;;;5073112;28;20471;-72
2022/07/18 09:53:00;;;;;;;4.47;2.70;;;36.50;39.70;;;;;;5073021;28;20525;-71
2022/07/18 09:55:29;;;;;;;5.23;3.10;;;36.10;39.70;;;;;;5073075;28;20977;-72
2022/07/18 09:58:02;;;;;;;3.10;2.80;;;35.80;39.00;;;;;;5073081;28;20542;-70
2022/07/18 10:00:31;;;;;;;3.60;3.03;;;35.00;39.00;;;;;;5072838;28;20962;-71
2022/07/18 10:03:00;;;;;;;4.93;2.90;;;35.50;39.80;;;;;;5072835;28;20946;-70
2022/07/18 10:05:31;;;;;;;3.50;2.47;;;36.00;39.40;;;;;;5072816;28;20470;-71
2022/07/18 10:08:00;;;;;;;3.10;2.80;;;36.70;38.50;;;;;;5073149;28;20531;-70
2022/07/18 10:10:30;;;;;;;4.37;2.70;;;36.10;38.20;;;;;;5072898;28;20716;-72
2022/07/18 10:12:59;;;;;;;3.77;2.73;;;36.80;39.20;;;;;;5072955;28;20436;-70
2022/07/18 10:15:30;;;;;;;5.23;2.23;;;36.70;38.80;;;;;;5072690;28;20883;-70
2022/07/18 10:17:58;;;;;;;3.23;2.50;;;36.60;37.90;;;;;;5072915;28;20557;-70
2022/07/18 10:20:37;;;;;;;3.10;2.50;;;36.40;37.90;;;;;;5072560;28;20559;-70
2022/07/18 10:23:17;;;;;;;4.13;2.60;;;35.50;37.50;;;;;;5073006;28;20436;-70
2022/07/18 10:26:09;;;;;;;6.43;2.63;;;35.40;38.60;;;;;;5072918;28;20432;-70
2022/07/18 10:28:36;;;;;;;3.40;3.00;;;36.40;38.80;;;;;;5074236;28;20534;-69
2022/07/18 10:31:15;;;;;;;3.70;2.60;;;36.80;38.30;;;;;;5077090;28;20573;-69
2022/07/18 10:33:45;;;;;;;6.47;2.57;;;37.30;38.20;;;;;;5077027;28;20487;-69
2022/07/18 10:36:16;;;;;;;3.13;2.90;;;36.30;37.10;;;;;;5076518;28;20965;-70
2022/07/18 10:39:07;;;;;;;3.17;2.87;;;36.70;37.40;;;;;;5076805;28;20475;-71
2022/07/18 10:42:14;;;;;;;2.53;2.33;;;36.80;37.60;;;;;;5076491;28;20487;-72
2022/07/18 10:44:42;;;;;;;2.63;2.43;;;36.80;37.30;;;;;;5076899;28;20449;-72
2022/07/18 10:47:11;;;;;;;2.40;2.20;;;36.80;36.60;;;;;;5076507;28;20449;-71
2022/07/18 10:50:01;;;;;;;5.13;2.30;;;36.90;36.50;;;;;;5076624;28;20471;-72
2022/07/18 10:52:57;;;;;;;2.50;2.30;;;36.90;37.00;;;;;;5076305;28;20575;-72
2022/07/18 10:55:31;;;;;;;2.20;1.97;;;36.90;35.40;;;;;;5076294;28;20451;-72
2022/07/18 10:58:19;;;;;;;4.80;3.40;;;36.80;36.40;;;;;;5076764;28;20824;-71
2022/07/18 11:00:51;;;;;;;2.43;2.23;;;36.40;35.30;;;;;;5076657;28;20472;-71
2022/07/18 11:03:28;;;;;;;2.40;2.20;;;37.00;35.80;;;;;;5076312;28;20917;-72
2022/07/18 11:05:57;;;;;;;2.40;2.20;;;37.30;35.50;;;;;;5076709;28;20789;-70
2022/07/18 11:08:28;;;;;;;6.10;3.17;;;37.30;36.20;;;;;;5076085;28;20543;-71
2022/07/18 11:11:10;;;;;;;2.63;2.43;;;37.30;35.70;;;;;;5076198;28;20918;-71
2022/07/18 11:13:41;;;;;;;3.13;2.90;;;37.50;35.80;;;;;;5075841;28;21044;-71
2022/07/18 11:16:13;;;;;;;2.70;2.43;;;37.50;35.90;;;;;;5076416;28;20440;-70
2022/07/18 11:19:29;;;;;;;2.30;2.07;;;37.40;36.10;;;;;;5075765;28;20543;-70
2022/07/18 11:22:00;;;;;;;2.57;2.37;;;37.40;35.50;;;;;;5076108;28;20773;-72
2022/07/18 11:24:28;;;;;;;2.83;2.50;;;37.50;35.70;;;;;;5076165;28;20447;-71
2022/07/18 11:26:56;;;;;;;5.73;3.50;;;37.00;35.00;;;;;;5074491;28;20454;-71
2022/07/18 11:29:24;;;;;;;2.60;2.40;;;36.70;36.20;;;;;;5075713;28;20976;-72
2022/07/18 11:31:53;;;;;;;2.63;2.23;;;36.70;34.60;;;;;;5075801;28;20819;-69
2022/07/18 11:34:21;;;;;;;2.90;1.93;;;36.70;35.10;;;;;;5076120;28;20469;-70
2022/07/18 11:36:49;;;;;;;1.90;1.73;;;36.90;35.20;;;;;;5075995;28;20463;-70
2022/07/18 11:39:29;;;;;;;2.10;2.00;;;36.30;35.00;;;;;;5075424;28;20451;-70
2022/07/18 11:41:57;;;;;;;2.70;2.03;;;37.00;34.70;;;;;;5075499;28;20475;-69
2022/07/18 11:44:27;;;;;;;2.30;2.10;;;37.30;35.00;;;;;;5075711;28;20844;-70
2022/07/18 11:47:05;;;;;;;2.40;2.20;;;37.60;34.40;;;;;;5075626;28;20551;-70
2022/07/18 11:49:32;;;;;;;2.40;2.20;;;37.70;34.60;;;;;;5075310;28;20534;-70
2022/07/18 11:52:00;;;;;;;2.20;2.00;;;38.10;35.30;;;;;;5075570;28;20479;-70
2022/07/18 11:54:28;;;;;;;3.10;2.47;;;37.70;33.60;;;;;;5075253;28;20958;-70
2022/07/18 11:56:56;;;;;;;2.00;1.90;;;37.80;34.80;;;;;;5075621;28;20455;-70
2022/07/18 11:59:35;;;;;;;3.77;2.03;;;37.20;34.60;;;;;;5075362;28;20452;-70
2022/07/18 12:02:03;;;;;;;2.03;1.93;;;37.40;34.50;;;;;;5075173;28;20427;-70
2022/07/18 12:04:30;;;;;;;3.00;2.33;;;37.70;34.60;;;;;;5075175;28;20447;-70
2022/07/18 12:07:18;;;;;;;1.90;1.70;;;37.20;34.40;;;;;;5075432;28;20455;-70
2022/07/18 12:09:46;;;;;;;3.17;2.20;;;37.60;34.70;;;;;;5074793;28;20464;-70
2022/07/18 12:12:15;;;;;;;2.30;1.97;;;37.50;34.10;;;;;;5074862;28;20583;-70
2022/07/18 12:14:43;;;;;;;2.83;2.10;;;37.10;33.70;;;;;;5074934;28;20535;-72
2022/07/18 12:17:10;;;;;;;2.10;1.90;;;36.70;33.30;;;;;;5074988;28;20868;-70
2022/07/18 12:19:40;;;;;;;2.63;2.43;;;36.00;34.10;;;;;;5074627;28;20533;-70
2022/07/18 12:22:09;;;;;;;2.17;1.97;;;36.60;34.90;;;;;;5075138;28;20451;-70
2022/07/18 12:24:38;;;;;;;1.80;1.70;;;37.50;33.70;;;;;;5074994;28;20447;-70
2022/07/18 12:27:20;;;;;;;2.20;2.00;;;37.80;33.80;;;;;;5074596;28;20448;-70
2022/07/18 12:30:02;;;;;;;2.10;1.90;;;37.80;33.60;;;;;;5074961;28;20476;-70
2022/07/18 12:32:30;;;;;;;3.50;2.00;;;38.00;33.80;;;;;;5074781;28;20463;-71
2022/07/18 12:35:00;;;;;;;2.30;2.20;;;37.60;33.70;;;;;;5074465;28;20530;-70
2022/07/18 12:37:29;;;;;;;2.30;2.10;;;37.80;33.80;;;;;;5074354;28;20442;-71
2022/07/18 12:40:00;;;;;;;2.63;2.17;;;37.80;34.70;;;;;;5074236;28;20464;-69
2022/07/18 12:42:32;;;;;;;2.60;2.40;;;37.60;34.00;;;;;;5073045;28;20475;-71
2022/07/18 12:45:01;;;;;;;3.70;2.10;;;37.10;34.10;;;;;;5074376;28;20523;-70
2022/07/18 12:47:29;;;;;;;2.90;2.30;;;36.90;34.40;;;;;;5074625;28;20544;-71
2022/07/18 12:49:56;;;;;;;2.37;2.17;;;36.70;34.30;;;;;;5074356;28;20472;-71
2022/07/18 12:52:23;;;;;;;3.03;2.10;;;36.40;34.30;;;;;;5073493;28;21021;-72
2022/07/18 12:54:51;;;;;;;4.97;2.17;;;36.20;34.40;;;;;;5074161;28;20923;-71
2022/07/18 12:57:19;;;;;;;2.37;2.17;;;36.20;34.70;;;;;;5074536;28;20458;-71
2022/07/18 12:59:47;;;;;;;2.50;2.13;;;36.40;34.30;;;;;;5074058;28;20464;-70
2022/07/18 13:02:20;;;;;;;2.37;2.10;;;36.50;34.00;;;;;;5073965;28;20447;-71
2022/07/18 13:04:47;;;;;;;2.37;2.17;;;35.90;34.30;;;;;;5074093;28;20437;-70